Aviation Digital Data Service (ADDS)

Output produced by METARs form (0105 UTC 17 July 2019)
found at http://www.aviationweather.gov/metar/data/
 
LDDU 170100Z 02017KT 350V060 CAVOK 22/07 Q1010
TAF LDDU 162325Z 1700/1800 02020KT CAVOK TX27/1713Z TN20/1703Z 
     PROB30 
     TEMPO 1700/1705 02022G34KT 
     BECMG 1707/1709 20008KT 
     BECMG 1715/1717 29009KT 
     BECMG 1720/1722 02015KT
       
LDOS 170100Z 28003KT CAVOK 14/13 Q1013
TAF LDOS 162325Z 1700/1800 32006KT CAVOK TX28/1714Z TN13/1702Z
       
LDPL 170100Z 06003KT 030V090 CAVOK 18/11 Q1013
TAF LDPL 162325Z 1700/1800 VRB02KT CAVOK TX28/1711Z TN16/1700Z 
     BECMG 1709/1711 27012KT 
     BECMG 1716/1718 27005KT
       
LDRI 170100Z VRB02KT CAVOK 18/11 Q1013
TAF LDRI 162325Z 1700/1800 05007KT CAVOK TX29/1713Z TN19/1702Z 
     BECMG 1710/1712 32006KT 
     BECMG 1718/1720 VRB02KT
       
LDSP 170100Z AUTO VRB06KT CAVOK 21/08 Q1012
TAF LDSP 162325Z 1700/1800 35006KT CAVOK TX30/1711Z TN19/1703Z 
     BECMG 1710/1712 23010KT 
     BECMG 1716/1718 30009KT
       
LDZD 170100Z 05005KT 010V080 CAVOK 18/10 Q1013 NOSIG
TAF LDZD 162325Z 1700/1800 08006KT CAVOK TX31/1712Z TN17/1703Z 
     BECMG 1711/1713 30015KT 
     BECMG 1720/1722 VRB02KT
       
LDZA 170100Z 25004KT CAVOK 14/13 Q1013 NOSIG
TAF LDZA 162325Z 1700/1800 VRB02KT CAVOK TX28/1714Z TN13/1703Z 
     TEMPO 1708/1713 05008KT